Time;durP1;ratioP1;P1;durP2;ratioP2;P2;SDS_P1;SDS_P2;PMS_P1;PMS_P2;Temp;Humidity;BMP_temperature;BMP_pressure;BME280_temperature;BME280_humidity;BME280_pressure;Samples;Min_cycle;Max_cycle;Signal;HPM_P1;HPM_P2
2022/02/24 01:43:20;;;;;;;1999.90;999.90;;;;;;;;;;5551845;23;20300;-70
2022/02/24 01:46:05;;;;;;;1999.90;999.90;;;;;;;;;;4956499;29;20211;-69
2022/02/24 01:48:50;;;;;;;1999.90;999.90;;;;;;;;;;4955878;29;20216;-70
2022/02/24 01:51:35;;;;;;;1999.90;999.90;;;;;;;;;;4956297;29;20218;-70
2022/02/24 01:54:20;;;;;;;1999.90;999.90;;;;;;;;;;4956147;28;20589;-69
2022/02/24 01:57:05;;;;;;;1999.90;999.90;;;;;;;;;;4956027;29;20203;-70
2022/02/24 01:59:52;;;;;;;1999.90;999.90;;;;;;;;;;4955748;29;20216;-70
2022/02/24 02:02:37;;;;;;;1999.90;999.90;;;;;;;;;;4949282;28;20236;-70
2022/02/24 02:05:22;;;;;;;1999.90;999.90;;;;;;;;;;4955902;29;20309;-70
2022/02/24 02:08:07;;;;;;;1999.90;999.90;;;;;;;;;;4948236;29;20210;-70
2022/02/24 02:10:52;;;;;;;1999.90;999.90;;;;;;;;;;4936752;29;20292;-69
2022/02/24 02:13:37;;;;;;;1999.90;999.90;;;;;;;;;;4936627;29;20252;-70
2022/02/24 02:16:24;;;;;;;1999.90;999.90;;;;;;;;;;4936447;29;20232;-69
2022/02/24 02:19:09;;;;;;;1999.90;999.90;;;;;;;;;;4936031;29;20589;-70
2022/02/24 02:21:55;;;;;;;1999.90;999.90;;;;;;;;;;4936555;29;20227;-70
2022/02/24 02:24:40;;;;;;;1999.90;999.90;;;;;;;;;;4949673;29;20216;-66
2022/02/24 02:27:25;;;;;;;1999.90;999.90;;;;;;;;;;4936506;29;20217;-67
2022/02/24 02:30:10;;;;;;;1999.90;999.90;;;;;;;;;;4947329;29;20220;-70
2022/02/24 02:32:55;;;;;;;1999.90;999.90;;;;;;;;;;4955111;28;20628;-70
2022/02/24 02:35:40;;;;;;;1999.90;999.90;;;;;;;;;;4955306;29;20229;-70
2022/02/24 02:38:26;;;;;;;1999.90;999.90;;;;;;;;;;4942431;29;20237;-70
2022/02/24 02:41:11;;;;;;;1999.90;999.90;;;;;;;;;;4936251;29;20703;-70
2022/02/24 02:43:57;;;;;;;1999.90;999.90;;;;;;;;;;4935350;29;20241;-69
2022/02/24 02:46:41;;;;;;;1999.90;999.90;;;;;;;;;;4934926;29;20200;-70
2022/02/24 02:49:26;;;;;;;1999.90;999.90;;;;;;;;;;4942841;29;20212;-70
2022/02/24 02:52:11;;;;;;;1999.90;999.90;;;;;;;;;;4953971;29;20203;-71
2022/02/24 02:55:00;;;;;;;1999.90;999.90;;;;;;;;;;4954162;29;20211;-70
2022/02/24 02:57:45;;;;;;;1999.90;999.90;;;;;;;;;;4953805;29;20698;-70
2022/02/24 03:00:30;;;;;;;1999.90;999.90;;;;;;;;;;4953810;29;20213;-70
2022/02/24 03:03:15;;;;;;;1999.90;999.90;;;;;;;;;;4953575;28;20316;-69
2022/02/24 03:06:00;;;;;;;1999.90;999.90;;;;;;;;;;4953383;28;20690;-69
2022/02/24 03:08:45;;;;;;;1999.90;999.90;;;;;;;;;;4958239;28;20597;-70
2022/02/24 03:11:31;;;;;;;1999.90;999.90;;;;;;;;;;4964699;28;20197;-70
2022/02/24 03:14:16;;;;;;;1999.90;999.90;;;;;;;;;;4952800;28;20336;-70
2022/02/24 03:17:01;;;;;;;1999.90;999.90;;;;;;;;;;4954026;28;20232;-70
2022/02/24 03:19:46;;;;;;;1999.90;999.90;;;;;;;;;;4953062;28;20212;-70
2022/02/24 03:22:31;;;;;;;1999.90;999.90;;;;;;;;;;4953029;28;20263;-70
2022/02/24 03:25:16;;;;;;;1999.90;999.90;;;;;;;;;;4953349;28;20215;-65
2022/02/24 03:28:04;;;;;;;1999.90;999.90;;;;;;;;;;4952769;28;20217;-70
2022/02/24 03:30:49;;;;;;;1999.90;999.90;;;;;;;;;;4952256;28;20346;-70
2022/02/24 03:33:34;;;;;;;1999.90;999.90;;;;;;;;;;4952859;28;20726;-70
2022/02/24 03:36:19;;;;;;;1999.90;999.90;;;;;;;;;;4952729;28;20224;-70
2022/02/24 03:39:04;;;;;;;1999.90;999.90;;;;;;;;;;4951933;28;20412;-71
2022/02/24 03:41:51;;;;;;;1999.90;999.90;;;;;;;;;;4949758;28;20700;-69
2022/02/24 03:44:37;;;;;;;1999.90;999.90;;;;;;;;;;4915600;28;1058142;-70
2022/02/24 03:47:23;;;;;;;1999.90;999.90;;;;;;;;;;4958462;28;20218;-71
2022/02/24 03:50:11;;;;;;;1999.90;999.90;;;;;;;;;;4954446;28;20240;-71
2022/02/24 03:52:55;;;;;;;1999.90;999.90;;;;;;;;;;4953724;28;20318;-72
2022/02/24 03:55:40;;;;;;;1999.90;999.90;;;;;;;;;;4934852;29;20601;-71
2022/02/24 03:58:26;;;;;;;1999.90;999.90;;;;;;;;;;4943494;29;20237;-71
2022/02/24 04:01:13;;;;;;;1999.90;999.90;;;;;;;;;;4954086;29;20205;-70
2022/02/24 04:03:58;;;;;;;1999.90;999.90;;;;;;;;;;4953953;28;20250;-71
2022/02/24 04:06:42;;;;;;;1999.90;999.90;;;;;;;;;;4954019;29;20209;-71
2022/02/24 04:09:28;;;;;;;1999.90;999.90;;;;;;;;;;4953333;29;20298;-71
2022/02/24 04:12:15;;;;;;;1999.90;999.90;;;;;;;;;;4953883;29;20250;-71
2022/02/24 04:15:01;;;;;;;1999.90;999.90;;;;;;;;;;4953941;29;20207;-71
2022/02/24 04:17:47;;;;;;;1999.90;999.90;;;;;;;;;;4953774;29;20204;-71
2022/02/24 04:20:31;;;;;;;1999.90;999.90;;;;;;;;;;4953587;29;20208;-71
2022/02/24 04:23:16;;;;;;;1999.90;999.90;;;;;;;;;;4953782;29;20227;-71
2022/02/24 04:26:01;;;;;;;1999.90;999.90;;;;;;;;;;4953850;29;20204;-71
2022/02/24 04:28:46;;;;;;;1999.90;999.90;;;;;;;;;;4953548;29;20214;-70
2022/02/24 04:31:32;;;;;;;1999.90;999.90;;;;;;;;;;4953587;29;20273;-71
2022/02/24 04:34:18;;;;;;;1999.90;999.90;;;;;;;;;;4953761;29;20726;-70
2022/02/24 04:37:03;;;;;;;1999.90;999.90;;;;;;;;;;4953486;29;20271;-71
2022/02/24 04:39:48;;;;;;;1999.90;999.90;;;;;;;;;;4953537;29;20203;-71
2022/02/24 04:42:33;;;;;;;1999.90;999.90;;;;;;;;;;4956806;28;20247;-71
2022/02/24 04:45:18;;;;;;;1999.90;999.90;;;;;;;;;;4956752;29;20408;-72
2022/02/24 04:48:03;;;;;;;1999.90;999.90;;;;;;;;;;4940572;29;20228;-71
2022/02/24 04:50:50;;;;;;;1999.90;999.90;;;;;;;;;;4938368;29;20289;-72
2022/02/24 04:53:35;;;;;;;1999.90;999.90;;;;;;;;;;4938126;29;20594;-72
2022/02/24 04:56:19;;;;;;;1999.90;999.90;;;;;;;;;;4938450;29;20237;-72
2022/02/24 04:59:04;;;;;;;1999.90;999.90;;;;;;;;;;4937789;29;20280;-71
2022/02/24 05:01:49;;;;;;;1999.90;999.90;;;;;;;;;;4938017;29;20679;-71
2022/02/24 05:04:34;;;;;;;1999.90;999.90;;;;;;;;;;4937954;29;20297;-70
2022/02/24 05:07:20;;;;;;;1999.90;999.90;;;;;;;;;;4937890;29;20249;-70
2022/02/24 05:10:07;;;;;;;1999.90;999.90;;;;;;;;;;4937835;29;20278;-70
2022/02/24 05:12:51;;;;;;;1999.90;999.90;;;;;;;;;;4937033;29;20763;-70
2022/02/24 05:15:36;;;;;;;1999.90;999.90;;;;;;;;;;4937713;29;20258;-70
2022/02/24 05:18:21;;;;;;;1999.90;999.90;;;;;;;;;;4937447;29;20216;-70
2022/02/24 05:21:06;;;;;;;1999.90;999.90;;;;;;;;;;4937636;29;20587;-71
2022/02/24 05:23:52;;;;;;;1999.90;999.90;;;;;;;;;;4937571;29;20792;-71
2022/02/24 05:26:38;;;;;;;1999.90;999.90;;;;;;;;;;4937359;29;20205;-70
2022/02/24 05:29:23;;;;;;;1999.90;999.90;;;;;;;;;;4937276;29;20249;-70
2022/02/24 05:32:07;;;;;;;1999.90;999.90;;;;;;;;;;4937392;29;20212;-70
2022/02/24 05:34:52;;;;;;;1999.90;999.90;;;;;;;;;;4937438;29;20257;-70
2022/02/24 05:37:37;;;;;;;1999.90;999.90;;;;;;;;;;4936902;29;20304;-71
2022/02/24 05:40:23;;;;;;;1999.90;999.90;;;;;;;;;;4937370;29;20758;-70
2022/02/24 05:43:08;;;;;;;1999.90;999.90;;;;;;;;;;4937140;29;20244;-70
2022/02/24 05:45:53;;;;;;;1999.90;999.90;;;;;;;;;;4937243;29;20289;-70
2022/02/24 05:48:38;;;;;;;1999.90;999.90;;;;;;;;;;4936943;29;20346;-70
2022/02/24 05:51:23;;;;;;;1999.90;999.90;;;;;;;;;;4940960;29;20324;-70
2022/02/24 05:54:08;;;;;;;1999.90;999.90;;;;;;;;;;4955311;28;20745;-71
2022/02/24 05:56:55;;;;;;;1999.90;999.90;;;;;;;;;;4955741;29;20236;-70
2022/02/24 05:59:40;;;;;;;1999.90;999.90;;;;;;;;;;4955694;29;20208;-70
2022/02/24 06:02:25;;;;;;;1999.90;999.90;;;;;;;;;;4936821;29;20239;-70
2022/02/24 06:05:10;;;;;;;1999.90;999.90;;;;;;;;;;4936932;29;20269;-70
2022/02/24 06:07:55;;;;;;;1999.90;999.90;;;;;;;;;;4936316;29;20209;-69
2022/02/24 06:10:40;;;;;;;1999.90;999.90;;;;;;;;;;4947628;29;20587;-71
2022/02/24 06:13:26;;;;;;;1999.90;999.90;;;;;;;;;;4955819;29;20232;-71
2022/02/24 06:16:11;;;;;;;1999.90;999.90;;;;;;;;;;4955872;29;20769;-71
2022/02/24 06:18:56;;;;;;;1999.90;999.90;;;;;;;;;;4955318;29;20408;-70
2022/02/24 06:21:41;;;;;;;1999.90;999.90;;;;;;;;;;4955734;29;20331;-70
2022/02/24 06:24:26;;;;;;;1999.90;999.90;;;;;;;;;;4955779;29;20220;-70
2022/02/24 06:27:11;;;;;;;1999.90;999.90;;;;;;;;;;4955698;29;20339;-70
2022/02/24 06:29:58;;;;;;;1999.90;999.90;;;;;;;;;;4955363;29;20224;-70
2022/02/24 06:32:44;;;;;;;1999.90;999.90;;;;;;;;;;4955706;29;20361;-69
2022/02/24 06:35:28;;;;;;;1999.90;999.90;;;;;;;;;;4955478;29;20229;-70
2022/02/24 06:38:14;;;;;;;1999.90;999.90;;;;;;;;;;4954835;29;20228;-71
2022/02/24 06:40:59;;;;;;;1999.90;999.90;;;;;;;;;;4955427;29;20199;-71
2022/02/24 06:43:44;;;;;;;1999.90;999.90;;;;;;;;;;4954367;29;20746;-70
2022/02/24 06:46:30;;;;;;;1999.90;999.90;;;;;;;;;;4936164;29;20210;-71
2022/02/24 06:49:15;;;;;;;1999.90;999.90;;;;;;;;;;4944330;29;20432;-70
2022/02/24 06:52:00;;;;;;;1999.90;999.90;;;;;;;;;;4955261;28;20208;-71
2022/02/24 06:54:45;;;;;;;1999.90;999.90;;;;;;;;;;4955082;29;20215;-71
2022/02/24 06:57:30;;;;;;;1999.90;999.90;;;;;;;;;;4954883;29;20293;-70
2022/02/24 07:00:16;;;;;;;1999.90;999.90;;;;;;;;;;4955066;29;20216;-70
2022/02/24 07:03:02;;;;;;;1999.90;999.90;;;;;;;;;;4935747;29;20308;-70
2022/02/24 07:05:47;;;;;;;1999.90;999.90;;;;;;;;;;4941417;28;20205;-69
2022/02/24 07:08:32;;;;;;;1999.90;999.90;;;;;;;;;;4961243;28;20280;-70
2022/02/24 07:11:17;;;;;;;1999.90;999.90;;;;;;;;;;4954303;28;20319;-71
2022/02/24 07:14:02;;;;;;;1999.90;999.90;;;;;;;;;;4954465;28;20275;-71
2022/02/24 07:16:49;;;;;;;1999.90;999.90;;;;;;;;;;4952685;29;20704;-70
2022/02/24 07:19:36;;;;;;;1999.90;999.90;;;;;;;;;;4940406;29;20834;-71
2022/02/24 07:22:21;;;;;;;1999.90;999.90;;;;;;;;;;4946110;29;20240;-70
2022/02/24 07:25:06;;;;;;;1999.90;999.90;;;;;;;;;;4954782;29;20215;-71
2022/02/24 07:27:51;;;;;;;1999.90;999.90;;;;;;;;;;4953839;29;20208;-71
2022/02/24 07:30:37;;;;;;;1999.90;999.90;;;;;;;;;;4951255;29;20587;-72
2022/02/24 07:33:22;;;;;;;1999.90;999.90;;;;;;;;;;4935473;29;20312;-70
2022/02/24 07:36:08;;;;;;;1999.90;999.90;;;;;;;;;;4948802;29;20577;-71
2022/02/24 07:38:53;;;;;;;1999.90;999.90;;;;;;;;;;4953460;29;20203;-71
2022/02/24 07:41:39;;;;;;;1999.90;999.90;;;;;;;;;;4953296;29;20236;-70
2022/02/24 07:44:24;;;;;;;1999.90;999.90;;;;;;;;;;4945112;29;20307;-71
2022/02/24 07:47:09;;;;;;;1999.90;999.90;;;;;;;;;;4949432;29;20199;-71
2022/02/24 07:49:56;;;;;;;1999.90;999.90;;;;;;;;;;4953158;29;20332;-71
2022/02/24 07:52:43;;;;;;;1999.90;999.90;;;;;;;;;;4949412;29;20233;-71
2022/02/24 07:55:29;;;;;;;1999.90;999.90;;;;;;;;;;4943382;29;20292;-71
2022/02/24 07:58:14;;;;;;;1999.90;999.90;;;;;;;;;;4953644;29;20228;-71
2022/02/24 08:00:59;;;;;;;1999.90;999.90;;;;;;;;;;4934850;29;20696;-70
2022/02/24 08:03:44;;;;;;;1999.90;999.90;;;;;;;;;;4934795;29;20257;-70
2022/02/24 08:06:28;;;;;;;1999.90;999.90;;;;;;;;;;4934811;29;20209;-71
2022/02/24 08:09:15;;;;;;;1999.90;999.90;;;;;;;;;;4934771;29;20282;-71
2022/02/24 08:15:03;;;;;;;1999.90;999.90;;;;;;;;;;4954002;28;20232;-71
2022/02/24 08:17:51;;;;;;;1999.90;999.90;;;;;;;;;;4959743;29;20278;-71
2022/02/24 08:20:37;;;;;;;1999.90;999.90;;;;;;;;;;4940671;29;20417;-72
2022/02/24 08:23:22;;;;;;;1999.90;999.90;;;;;;;;;;4940766;29;20232;-71
2022/02/24 08:26:08;;;;;;;1999.90;999.90;;;;;;;;;;4940925;29;20282;-72
2022/02/24 08:28:55;;;;;;;1999.90;999.90;;;;;;;;;;4940737;29;20220;-71
2022/02/24 08:31:40;;;;;;;1999.90;999.90;;;;;;;;;;4940856;29;20213;-70
2022/02/24 08:34:24;;;;;;;1999.90;999.90;;;;;;;;;;4940937;29;20201;-71
2022/02/24 08:37:10;;;;;;;1999.90;999.90;;;;;;;;;;4959334;28;20615;-70
2022/02/24 08:39:55;;;;;;;1999.90;999.90;;;;;;;;;;4948931;29;20221;-71
2022/02/24 08:42:41;;;;;;;1999.90;999.90;;;;;;;;;;4959726;28;20236;-71
2022/02/24 08:45:26;;;;;;;1999.90;999.90;;;;;;;;;;4940834;29;20237;-71
2022/02/24 08:48:11;;;;;;;1999.90;999.90;;;;;;;;;;4940402;29;20210;-71
2022/02/24 08:50:56;;;;;;;1999.90;999.90;;;;;;;;;;4940774;29;20209;-71
2022/02/24 08:53:41;;;;;;;1999.90;999.90;;;;;;;;;;4951457;29;20225;-70
2022/02/24 08:56:27;;;;;;;1999.90;999.90;;;;;;;;;;4959549;29;20243;-70
2022/02/24 08:59:13;;;;;;;1999.90;999.90;;;;;;;;;;4960087;29;20196;-71
2022/02/24 09:01:58;;;;;;;1999.90;999.90;;;;;;;;;;4959216;29;20213;-71
2022/02/24 09:04:43;;;;;;;1999.90;999.90;;;;;;;;;;4954646;29;20213;-71
2022/02/24 09:07:28;;;;;;;1999.90;999.90;;;;;;;;;;4940963;29;20699;-73
2022/02/24 09:10:13;;;;;;;1999.90;999.90;;;;;;;;;;4940725;29;20292;-72
2022/02/24 09:12:58;;;;;;;1999.90;999.90;;;;;;;;;;4940762;29;20228;-71
2022/02/24 09:15:45;;;;;;;1999.90;999.90;;;;;;;;;;4940761;29;20569;-71
2022/02/24 09:18:30;;;;;;;1999.90;999.90;;;;;;;;;;4939899;29;20229;-72
2022/02/24 09:21:14;;;;;;;1999.90;999.90;;;;;;;;;;4948173;29;20216;-73
2022/02/24 09:23:59;;;;;;;1999.90;999.90;;;;;;;;;;4958292;29;20436;-72
2022/02/24 09:26:44;;;;;;;1999.90;999.90;;;;;;;;;;4960189;28;20205;-72
2022/02/24 09:29:29;;;;;;;1999.90;999.90;;;;;;;;;;4956197;29;20584;-72
2022/02/24 09:32:15;;;;;;;1999.90;999.90;;;;;;;;;;4960044;29;20743;-70
2022/02/24 09:35:00;;;;;;;1999.90;999.90;;;;;;;;;;4958311;29;20217;-73
2022/02/24 09:37:45;;;;;;;1999.90;999.90;;;;;;;;;;4958657;29;20750;-72
2022/02/24 09:40:31;;;;;;;1999.90;999.90;;;;;;;;;;4956828;29;20280;-71
2022/02/24 09:43:16;;;;;;;1999.90;999.90;;;;;;;;;;4956750;28;20241;-71
2022/02/24 09:46:02;;;;;;;1999.90;999.90;;;;;;;;;;4956589;29;20588;-72
2022/02/24 09:48:48;;;;;;;1999.90;999.90;;;;;;;;;;4956075;29;20208;-71
2022/02/24 09:51:33;;;;;;;1999.90;999.90;;;;;;;;;;4956128;29;20229;-71
2022/02/24 09:54:18;;;;;;;1999.90;999.90;;;;;;;;;;4954679;28;20424;-72
2022/02/24 09:57:03;;;;;;;1999.90;999.90;;;;;;;;;;4956374;29;20348;-72
2022/02/24 09:59:48;;;;;;;1999.90;999.90;;;;;;;;;;4955875;29;20209;-74
2022/02/24 10:02:33;;;;;;;1999.90;999.90;;;;;;;;;;4956405;29;20245;-73
2022/02/24 10:05:19;;;;;;;1999.90;999.90;;;;;;;;;;4955522;29;20282;-73
2022/02/24 10:08:09;;;;;;;1999.90;999.90;;;;;;;;;;4947271;29;20406;-72
2022/02/24 10:10:54;;;;;;;1999.90;999.90;;;;;;;;;;4936822;29;20217;-72
2022/02/24 10:13:39;;;;;;;1999.90;999.90;;;;;;;;;;4955214;28;20241;-73
2022/02/24 10:16:25;;;;;;;1999.90;999.90;;;;;;;;;;4955814;29;20572;-73
2022/02/24 10:19:13;;;;;;;1999.90;999.90;;;;;;;;;;4955022;29;20395;-73
2022/02/24 10:22:12;;;;;;;1999.90;999.90;;;;;;;;;;4955601;29;20205;-72
2022/02/24 10:24:58;;;;;;;1999.90;999.90;;;;;;;;;;4956206;29;20341;-73
2022/02/24 10:27:46;;;;;;;1999.90;999.90;;;;;;;;;;4955414;29;20291;-73
2022/02/24 10:30:31;;;;;;;1999.90;999.90;;;;;;;;;;4951695;29;20204;-72
2022/02/24 10:33:24;;;;;;;1999.90;999.90;;;;;;;;;;4953234;29;20677;-71
2022/02/24 10:36:14;;;;;;;1999.90;999.90;;;;;;;;;;4946574;29;20303;-72
2022/02/24 10:39:01;;;;;;;1999.90;999.90;;;;;;;;;;4954741;28;20228;-70
2022/02/24 10:41:47;;;;;;;1999.90;999.90;;;;;;;;;;4946606;29;20221;-71
2022/02/24 10:44:35;;;;;;;1999.90;999.90;;;;;;;;;;4935877;29;20768;-71
2022/02/24 10:47:20;;;;;;;1999.90;999.90;;;;;;;;;;4936018;29;20210;-69
2022/02/24 10:50:05;;;;;;;1999.90;999.90;;;;;;;;;;4936028;29;20337;-71
2022/02/24 10:53:05;;;;;;;1999.90;999.90;;;;;;;;;;4953714;28;20711;-72
2022/02/24 10:56:02;;;;;;;1999.90;999.90;;;;;;;;;;4953460;29;20926;-72
2022/02/24 10:58:47;;;;;;;1999.90;999.90;;;;;;;;;;4954488;29;20240;-72
2022/02/24 11:01:32;;;;;;;1999.90;999.90;;;;;;;;;;4954661;29;20292;-72
2022/02/24 11:04:19;;;;;;;1999.90;999.90;;;;;;;;;;4935923;29;20728;-72
2022/02/24 11:07:07;;;;;;;1999.90;999.90;;;;;;;;;;4935802;29;20213;-72
2022/02/24 11:09:57;;;;;;;1999.90;999.90;;;;;;;;;;4937077;29;20714;-73
2022/02/24 11:12:43;;;;;;;1999.90;999.90;;;;;;;;;;4942373;28;20265;-72
2022/02/24 11:15:29;;;;;;;1999.90;999.90;;;;;;;;;;4955032;29;20216;-72
2022/02/24 11:18:14;;;;;;;1999.90;999.90;;;;;;;;;;4954387;29;20220;-72
2022/02/24 11:21:00;;;;;;;1999.90;999.90;;;;;;;;;;4953679;29;20220;-73
2022/02/24 11:23:47;;;;;;;1999.90;999.90;;;;;;;;;;4954695;28;20276;-74
2022/02/24 11:26:39;;;;;;;1999.90;999.90;;;;;;;;;;4936458;29;20411;-73
2022/02/24 11:29:28;;;;;;;1999.90;999.90;;;;;;;;;;4935162;29;20590;-72
2022/02/24 11:32:13;;;;;;;1999.90;999.90;;;;;;;;;;4944253;29;20221;-72
2022/02/24 11:35:06;;;;;;;1999.90;999.90;;;;;;;;;;4950695;29;20216;-74
2022/02/24 11:37:53;;;;;;;1999.90;999.90;;;;;;;;;;4949679;29;20305;-74
2022/02/24 11:40:38;;;;;;;1999.90;999.90;;;;;;;;;;4951609;29;20728;-74
2022/02/24 11:43:25;;;;;;;1999.90;999.90;;;;;;;;;;4951278;28;20844;-73
2022/02/24 11:46:13;;;;;;;1999.90;999.90;;;;;;;;;;4950884;29;20212;-74
2022/02/24 11:48:58;;;;;;;1999.90;999.90;;;;;;;;;;4951518;29;20228;-72
2022/02/24 11:51:43;;;;;;;1999.90;999.90;;;;;;;;;;4951494;28;20337;-73
2022/02/24 11:54:36;;;;;;;1999.90;999.90;;;;;;;;;;4950120;29;20219;-73
2022/02/24 11:57:25;;;;;;;1999.90;999.90;;;;;;;;;;4951425;29;20217;-72
2022/02/24 12:00:11;;;;;;;1999.90;999.90;;;;;;;;;;4951759;29;20210;-74
2022/02/24 12:02:58;;;;;;;1999.90;999.90;;;;;;;;;;4951484;28;20316;-74
2022/02/24 12:06:03;;;;;;;1999.90;999.90;;;;;;;;;;4951998;29;20260;-73
2022/02/24 12:09:12;;;;;;;1999.90;999.90;;;;;;;;;;4950879;29;20284;-73
2022/02/24 12:11:57;;;;;;;1999.90;999.90;;;;;;;;;;4942787;29;20220;-72
2022/02/24 12:14:47;;;;;;;1999.90;999.90;;;;;;;;;;4953928;29;20301;-70
2022/02/24 12:17:45;;;;;;;1999.90;999.90;;;;;;;;;;4952839;29;20213;-72
2022/02/24 12:20:33;;;;;;;1999.90;999.90;;;;;;;;;;4934728;29;20198;-73
2022/02/24 12:23:22;;;;;;;1999.90;999.90;;;;;;;;;;4934866;29;20241;-73
2022/02/24 12:26:13;;;;;;;1999.90;999.90;;;;;;;;;;4946290;29;20488;-73
2022/02/24 12:29:13;;;;;;;1999.90;999.90;;;;;;;;;;4953189;29;20278;-72
2022/02/24 12:31:59;;;;;;;1999.90;999.90;;;;;;;;;;4953519;29;20224;-73
2022/02/24 12:34:46;;;;;;;1999.90;999.90;;;;;;;;;;4953791;29;20299;-74
2022/02/24 12:37:34;;;;;;;1999.90;999.90;;;;;;;;;;4954042;29;20229;-73
2022/02/24 12:40:24;;;;;;;1999.90;999.90;;;;;;;;;;4950936;29;20582;-74
2022/02/24 12:43:10;;;;;;;1999.90;999.90;;;;;;;;;;4953352;29;20243;-75
2022/02/24 12:45:55;;;;;;;1999.90;999.90;;;;;;;;;;4935314;29;20722;-73
2022/02/24 12:48:40;;;;;;;1999.90;999.90;;;;;;;;;;4934059;29;20213;-73
2022/02/24 12:51:25;;;;;;;1999.90;999.90;;;;;;;;;;4934473;29;20210;-73
2022/02/24 12:54:13;;;;;;;1999.90;999.90;;;;;;;;;;4948977;29;20788;-73
2022/02/24 12:57:01;;;;;;;1999.90;999.90;;;;;;;;;;4952923;29;20403;-73
2022/02/24 12:59:46;;;;;;;1999.90;999.90;;;;;;;;;;4952877;29;20354;-73
2022/02/24 13:02:31;;;;;;;1999.90;999.90;;;;;;;;;;4953786;28;20353;-73
2022/02/24 13:05:16;;;;;;;1999.90;999.90;;;;;;;;;;4957182;29;20206;-73
2022/02/24 13:11:11;;;;;;;1999.90;999.90;;;;;;;;;;4933853;28;20635;-70
2022/02/24 13:14:00;;;;;;;1999.90;999.90;;;;;;;;;;4946680;29;20237;-72
2022/02/24 13:16:46;;;;;;;1999.90;999.90;;;;;;;;;;4956528;29;20212;-72
2022/02/24 13:19:31;;;;;;;1999.90;999.90;;;;;;;;;;4943319;29;20233;-71
2022/02/24 13:22:16;;;;;;;1999.90;999.90;;;;;;;;;;4941407;29;20256;-72
2022/02/24 13:25:01;;;;;;;1999.90;999.90;;;;;;;;;;4947490;29;20333;-72
2022/02/24 13:27:47;;;;;;;1999.90;999.90;;;;;;;;;;4956643;29;20291;-72
2022/02/24 13:30:33;;;;;;;1999.90;999.90;;;;;;;;;;4955988;29;20212;-71
2022/02/24 13:33:18;;;;;;;1999.90;999.90;;;;;;;;;;4945974;29;20825;-72
2022/02/24 13:36:03;;;;;;;1999.90;999.90;;;;;;;;;;4956312;29;20577;-72
2022/02/24 13:38:48;;;;;;;1999.90;999.90;;;;;;;;;;4953551;29;20248;-72
2022/02/24 13:41:33;;;;;;;1999.90;999.90;;;;;;;;;;4956565;29;20293;-73
2022/02/24 13:44:20;;;;;;;1999.90;999.90;;;;;;;;;;4956310;28;20240;-72
2022/02/24 13:47:06;;;;;;;1999.90;999.90;;;;;;;;;;4956617;29;20213;-70
2022/02/24 13:49:51;;;;;;;1999.90;999.90;;;;;;;;;;4956507;29;20212;-72
2022/02/24 13:52:37;;;;;;;1999.90;999.90;;;;;;;;;;4956150;28;20232;-73
2022/02/24 13:55:28;;;;;;;1999.90;999.90;;;;;;;;;;4956513;29;20280;-72
2022/02/24 13:58:13;;;;;;;1999.90;999.90;;;;;;;;;;4955487;29;20197;-72
2022/02/24 14:01:02;;;;;;;1999.90;999.90;;;;;;;;;;4954692;29;20437;-72
2022/02/24 14:03:48;;;;;;;1999.90;999.90;;;;;;;;;;4946344;29;20233;-72
2022/02/24 14:06:41;;;;;;;1999.90;999.90;;;;;;;;;;4955828;29;20214;-72
2022/02/24 14:09:26;;;;;;;1999.90;999.90;;;;;;;;;;4955576;29;20664;-72
2022/02/24 14:12:11;;;;;;;1999.90;999.90;;;;;;;;;;4955815;29;20583;-72
2022/02/24 14:14:56;;;;;;;1999.90;999.90;;;;;;;;;;4955533;28;20215;-72
2022/02/24 14:17:42;;;;;;;1999.90;999.90;;;;;;;;;;4955682;29;20292;-72
2022/02/24 14:20:28;;;;;;;1999.90;999.90;;;;;;;;;;4955772;29;20613;-71
2022/02/24 14:23:13;;;;;;;1999.90;999.90;;;;;;;;;;4955475;29;20692;-72
2022/02/24 14:25:58;;;;;;;1999.90;999.90;;;;;;;;;;4955959;29;20223;-72
2022/02/24 14:28:43;;;;;;;1999.90;999.90;;;;;;;;;;4951468;29;20694;-72
2022/02/24 14:31:28;;;;;;;1999.90;999.90;;;;;;;;;;4953645;29;20249;-73
2022/02/24 14:34:14;;;;;;;1999.90;999.90;;;;;;;;;;4954530;29;20234;-71
2022/02/24 14:37:00;;;;;;;1999.90;999.90;;;;;;;;;;4943127;29;20221;-72
2022/02/24 14:39:45;;;;;;;1999.90;999.90;;;;;;;;;;4954936;29;20231;-71
2022/02/24 14:42:30;;;;;;;1999.90;999.90;;;;;;;;;;4955407;28;20237;-72
2022/02/24 14:45:15;;;;;;;1999.90;999.90;;;;;;;;;;4955258;29;20218;-70
2022/02/24 14:48:00;;;;;;;1999.90;999.90;;;;;;;;;;4955248;29;20338;-72
2022/02/24 14:50:47;;;;;;;1999.90;999.90;;;;;;;;;;4955524;29;20206;-72
2022/02/24 14:53:31;;;;;;;1999.90;999.90;;;;;;;;;;4955171;28;20225;-71
2022/02/24 14:56:16;;;;;;;1999.90;999.90;;;;;;;;;;4955162;29;20600;-71
2022/02/24 14:59:01;;;;;;;1999.90;999.90;;;;;;;;;;4954757;29;20714;-71
2022/02/24 15:01:46;;;;;;;1999.90;999.90;;;;;;;;;;4947804;29;20748;-71
2022/02/24 15:04:31;;;;;;;1999.90;999.90;;;;;;;;;;4935494;29;20210;-72
2022/02/24 15:07:17;;;;;;;1999.90;999.90;;;;;;;;;;4935908;29;20496;-70
2022/02/24 15:10:02;;;;;;;1999.90;999.90;;;;;;;;;;4935619;29;20579;-71
2022/02/24 15:12:47;;;;;;;1999.90;999.90;;;;;;;;;;4936250;29;20222;-71
2022/02/24 15:15:32;;;;;;;1999.90;999.90;;;;;;;;;;4937320;29;20207;-71
2022/02/24 15:18:21;;;;;;;1999.90;999.90;;;;;;;;;;4953458;29;20211;-71
2022/02/24 15:21:05;;;;;;;1999.90;999.90;;;;;;;;;;4954598;29;20203;-72
2022/02/24 15:23:52;;;;;;;1999.90;999.90;;;;;;;;;;4954851;28;20247;-72
2022/02/24 15:26:36;;;;;;;1999.90;999.90;;;;;;;;;;4953165;28;20638;-71
2022/02/24 15:29:22;;;;;;;1999.90;999.90;;;;;;;;;;4954360;29;20260;-70
2022/02/24 15:32:06;;;;;;;1999.90;999.90;;;;;;;;;;4954217;29;20205;-71
2022/02/24 15:34:51;;;;;;;1999.90;999.90;;;;;;;;;;4954742;29;20327;-70
2022/02/24 15:37:36;;;;;;;1999.90;999.90;;;;;;;;;;4953912;29;20302;-72
2022/02/24 15:40:22;;;;;;;1999.90;999.90;;;;;;;;;;4954138;29;20231;-72
2022/02/24 15:43:07;;;;;;;1999.90;999.90;;;;;;;;;;4953687;28;20250;-71
2022/02/24 15:45:52;;;;;;;1999.90;999.90;;;;;;;;;;4954324;29;20206;-71
2022/02/24 15:48:37;;;;;;;1999.90;999.90;;;;;;;;;;4953870;29;20445;-72
2022/02/24 15:51:22;;;;;;;1999.90;999.90;;;;;;;;;;4950791;29;20253;-70
2022/02/24 15:54:08;;;;;;;1999.90;999.90;;;;;;;;;;4953980;29;20294;-71
2022/02/24 15:56:54;;;;;;;1999.90;999.90;;;;;;;;;;4954343;29;20677;-72
2022/02/24 15:59:39;;;;;;;1999.90;999.90;;;;;;;;;;4953604;29;20221;-72
2022/02/24 16:02:24;;;;;;;1999.90;999.90;;;;;;;;;;4953735;29;20364;-71
2022/02/24 16:05:09;;;;;;;1999.90;999.90;;;;;;;;;;4953066;29;20764;-71
2022/02/24 16:07:54;;;;;;;1999.90;999.90;;;;;;;;;;4953654;29;20204;-72
2022/02/24 16:10:40;;;;;;;1999.90;999.90;;;;;;;;;;4953998;29;20276;-71
2022/02/24 16:13:27;;;;;;;1999.90;999.90;;;;;;;;;;4954463;28;20277;-71
2022/02/24 16:16:12;;;;;;;1999.90;999.90;;;;;;;;;;4954132;29;20215;-72
2022/02/24 16:18:56;;;;;;;1999.90;999.90;;;;;;;;;;4953612;29;20219;-72
2022/02/24 16:21:41;;;;;;;1999.90;999.90;;;;;;;;;;4953890;29;20212;-70
2022/02/24 16:24:26;;;;;;;1999.90;999.90;;;;;;;;;;4952959;29;20210;-71
2022/02/24 16:27:11;;;;;;;1999.90;999.90;;;;;;;;;;4934748;29;20219;-74
2022/02/24 16:29:58;;;;;;;1999.90;999.90;;;;;;;;;;4934262;29;20196;-72
2022/02/24 16:32:43;;;;;;;1999.90;999.90;;;;;;;;;;4934911;29;20230;-72
2022/02/24 16:35:29;;;;;;;1999.90;999.90;;;;;;;;;;4940994;29;20289;-72
2022/02/24 16:38:14;;;;;;;1999.90;999.90;;;;;;;;;;4956938;28;20223;-72
2022/02/24 16:40:59;;;;;;;1999.90;999.90;;;;;;;;;;4957574;29;20720;-73
2022/02/24 16:43:44;;;;;;;1999.90;999.90;;;;;;;;;;4957403;29;20241;-72
2022/02/24 16:46:31;;;;;;;1999.90;999.90;;;;;;;;;;4959056;29;20214;-71
2022/02/24 16:49:16;;;;;;;1999.90;999.90;;;;;;;;;;4960393;29;20297;-71
2022/02/24 16:52:01;;;;;;;1999.90;999.90;;;;;;;;;;4957320;29;20211;-73
2022/02/24 16:54:46;;;;;;;1999.90;999.90;;;;;;;;;;4946744;29;20216;-71
2022/02/24 16:57:32;;;;;;;1999.90;999.90;;;;;;;;;;4956786;29;20359;-71
2022/02/24 17:00:17;;;;;;;1999.90;999.90;;;;;;;;;;4957395;29;20215;-72
2022/02/24 17:03:04;;;;;;;1999.90;999.90;;;;;;;;;;4956843;29;20234;-72
2022/02/24 17:05:50;;;;;;;1999.90;999.90;;;;;;;;;;4938024;29;20216;-72
2022/02/24 17:08:35;;;;;;;1999.90;999.90;;;;;;;;;;4937014;29;20474;-71
2022/02/24 17:11:20;;;;;;;1999.90;999.90;;;;;;;;;;4937699;29;20207;-71
2022/02/24 17:14:05;;;;;;;1999.90;999.90;;;;;;;;;;4942798;29;20229;-72